createdAt,value
2022-10-25T00:01:57.478Z,3.83
2022-10-25T00:04:24.178Z,6.82
2022-10-25T00:06:50.790Z,7.00
2022-10-25T00:09:17.449Z,11.93
2022-10-25T00:11:44.108Z,8.27
2022-10-25T00:14:15.825Z,8.15
2022-10-25T00:16:42.507Z,7.85
2022-10-25T00:19:09.200Z,11.65
2022-10-25T00:21:35.824Z,7.57
2022-10-25T00:24:03.322Z,7.72
2022-10-25T00:26:29.979Z,11.73
2022-10-25T00:28:56.696Z,7.03
2022-10-25T00:31:24.200Z,3.75
2022-10-25T00:33:50.864Z,7.10
2022-10-25T00:36:20.714Z,10.40
2022-10-25T00:38:48.195Z,7.00
2022-10-25T00:41:17.790Z,9.10
2022-10-25T00:43:47.718Z,11.70
2022-10-25T00:46:25.695Z,5.93
2022-10-25T00:49:03.431Z,7.38
2022-10-25T00:51:43.787Z,6.25
2022-10-25T00:54:12.904Z,5.88
2022-10-25T00:56:42.660Z,6.55
2022-10-25T00:59:12.363Z,8.13
2022-10-25T01:01:39.317Z,5.68
2022-10-25T01:04:11.360Z,4.22
2022-10-25T01:09:07.843Z,6.40
2022-10-25T01:11:36.088Z,4.63
2022-10-25T01:14:02.767Z,8.18
2022-10-25T01:16:56.043Z,7.10
2022-10-25T01:19:58.017Z,11.27
2022-10-25T01:22:35.469Z,5.25
2022-10-25T01:25:14.080Z,9.40
2022-10-25T01:27:59.466Z,5.05
2022-10-25T01:30:50.513Z,9.02
2022-10-25T01:33:27.470Z,10.18
2022-10-25T01:36:06.163Z,6.85
2022-10-25T01:38:41.839Z,6.32
2022-10-25T01:41:35.379Z,5.93
2022-10-25T01:44:27.007Z,7.55
2022-10-25T01:47:01.478Z,5.07
2022-10-25T01:49:43.451Z,9.35
2022-10-25T01:52:10.335Z,7.60
2022-10-25T01:54:37.057Z,9.20
2022-10-25T01:57:08.900Z,5.60
2022-10-25T01:59:50.635Z,7.13
2022-10-25T02:02:34.082Z,9.82
2022-10-25T02:05:08.216Z,6.22
2022-10-25T02:07:41.614Z,8.60
2022-10-25T02:10:10.261Z,7.60
2022-10-25T02:13:19.971Z,8.52
2022-10-25T02:16:03.057Z,10.45
2022-10-25T02:18:33.897Z,7.07
2022-10-25T02:21:02.879Z,8.02
2022-10-25T02:23:31.996Z,6.80
2022-10-25T02:25:59.296Z,9.25
2022-10-25T02:28:32.560Z,10.00
2022-10-25T02:31:00.384Z,6.53
2022-10-25T02:33:29.875Z,7.15
2022-10-25T02:36:22.372Z,7.28
2022-10-25T02:38:51.495Z,6.35
2022-10-25T02:45:18.155Z,8.68
2022-10-25T02:47:45.313Z,6.78
2022-10-25T02:50:12.721Z,5.28
2022-10-25T02:52:39.318Z,6.88
2022-10-25T02:55:06.534Z,7.93
2022-10-25T02:57:37.899Z,6.43
2022-10-25T03:00:06.544Z,6.65
2022-10-25T03:02:33.247Z,5.97
2022-10-25T03:05:00.007Z,4.72
2022-10-25T03:07:26.683Z,3.97
2022-10-25T03:09:53.331Z,6.30
2022-10-25T03:12:19.935Z,9.57
2022-10-25T03:14:46.548Z,7.70
2022-10-25T03:17:13.177Z,7.60
2022-10-25T03:19:39.763Z,5.32
2022-10-25T03:22:06.378Z,8.25
2022-10-25T03:24:32.986Z,5.18
2022-10-25T03:27:00.462Z,8.63
2022-10-25T03:29:27.158Z,7.63
2022-10-25T03:31:54.032Z,5.75
2022-10-25T03:34:20.688Z,6.78
2022-10-25T03:36:47.312Z,10.77
2022-10-25T03:39:14.024Z,3.17
2022-10-25T03:41:40.636Z,8.73
2022-10-25T03:44:07.241Z,7.43
2022-10-25T03:46:33.934Z,7.60
2022-10-25T03:49:00.532Z,8.43
2022-10-25T03:51:27.191Z,9.13
2022-10-25T03:53:53.809Z,10.30
2022-10-25T03:56:20.441Z,10.18
2022-10-25T03:58:47.029Z,5.40
2022-10-25T04:01:13.852Z,4.40
2022-10-25T04:03:40.591Z,6.97
2022-10-25T04:06:07.430Z,3.90
2022-10-25T04:08:34.197Z,6.93
2022-10-25T04:11:00.918Z,9.30
2022-10-25T04:13:28.079Z,10.18
2022-10-25T04:15:54.729Z,6.40
2022-10-25T04:18:21.534Z,6.88
2022-10-25T04:20:48.162Z,4.15
2022-10-25T04:23:14.801Z,4.35
2022-10-25T04:25:41.871Z,5.28
2022-10-25T04:28:08.517Z,5.60
2022-10-25T04:30:37.969Z,10.15
2022-10-25T04:33:05.743Z,5.57
2022-10-25T04:35:32.382Z,5.45
2022-10-25T04:37:59.124Z,6.40
2022-10-25T04:40:25.892Z,13.45
2022-10-25T04:42:52.610Z,3.63
2022-10-25T04:45:19.268Z,5.43
2022-10-25T04:47:46.030Z,8.00
2022-10-25T04:50:12.804Z,8.63
2022-10-25T04:52:39.599Z,6.38
2022-10-25T04:55:06.456Z,8.00
2022-10-25T04:57:33.177Z,9.27
2022-10-25T04:59:59.825Z,4.05
2022-10-25T05:02:26.543Z,3.47
2022-10-25T05:04:53.251Z,6.80
2022-10-25T05:07:21.023Z,7.03
2022-10-25T05:09:48.489Z,8.32
2022-10-25T05:12:15.779Z,11.35
2022-10-25T05:14:42.473Z,4.25
2022-10-25T05:17:09.474Z,3.97
2022-10-25T05:19:36.140Z,5.47
2022-10-25T05:22:04.202Z,7.03
2022-10-25T05:24:30.881Z,6.55
2022-10-25T05:26:57.573Z,5.55
2022-10-25T05:29:24.279Z,6.95
2022-10-25T05:31:50.929Z,9.93
2022-10-25T05:34:17.630Z,5.65
2022-10-25T05:36:44.441Z,7.15
2022-10-25T05:39:11.086Z,6.68
2022-10-25T05:41:37.740Z,3.28
2022-10-25T05:44:05.659Z,8.38
2022-10-25T05:46:32.393Z,4.20
2022-10-25T05:48:59.894Z,3.05
2022-10-25T05:51:36.280Z,6.63
2022-10-25T05:54:10.027Z,7.22
2022-10-25T05:56:37.664Z,10.13
2022-10-25T05:59:11.574Z,6.32
2022-10-25T06:01:40.784Z,4.90
2022-10-25T06:04:08.442Z,9.52
2022-10-25T06:06:36.284Z,8.35
2022-10-25T06:09:03.875Z,7.95
2022-10-25T06:11:31.026Z,5.40
2022-10-25T06:13:58.132Z,13.88
2022-10-25T06:16:25.192Z,7.43
2022-10-25T06:18:53.890Z,6.38
2022-10-25T06:21:23.608Z,3.75
2022-10-25T06:23:50.305Z,7.65
2022-10-25T06:26:19.440Z,4.40
2022-10-25T06:28:46.578Z,6.25
2022-10-25T06:31:16.208Z,7.05
2022-10-25T06:33:43.222Z,5.10
2022-10-25T06:36:16.644Z,5.88
2022-10-25T06:38:44.586Z,7.45
2022-10-25T06:41:16.623Z,6.97
2022-10-25T06:43:43.275Z,5.72
2022-10-25T06:46:14.761Z,5.10
2022-10-25T06:48:41.543Z,7.43
2022-10-25T06:51:11.705Z,7.25
2022-10-25T06:53:38.681Z,7.95
2022-10-25T06:56:10.584Z,7.60
2022-10-25T06:58:41.163Z,4.78
2022-10-25T07:01:13.602Z,5.90
2022-10-25T07:03:41.953Z,5.20
2022-10-25T07:06:11.464Z,3.38
2022-10-25T07:08:40.167Z,6.28
2022-10-25T07:11:08.586Z,2.88
2022-10-25T07:13:35.603Z,5.65
2022-10-25T07:16:07.282Z,3.33
2022-10-25T07:18:35.310Z,5.10
2022-10-25T07:21:13.503Z,5.28
2022-10-25T07:23:43.844Z,3.85
2022-10-25T07:26:13.914Z,9.55
2022-10-25T07:28:40.904Z,4.35
2022-10-25T07:31:07.882Z,6.03
2022-10-25T07:33:34.652Z,6.15
2022-10-25T07:36:16.666Z,3.50
2022-10-25T07:38:43.490Z,4.63
2022-10-25T07:41:10.331Z,5.45
2022-10-25T07:43:37.293Z,6.32
2022-10-25T07:46:04.675Z,6.13
2022-10-25T07:48:31.416Z,8.65
2022-10-25T07:50:58.236Z,11.02
2022-10-25T07:53:24.935Z,11.95
2022-10-25T07:55:53.016Z,12.85
2022-10-25T07:58:19.848Z,8.77
2022-10-25T08:00:47.097Z,9.52
2022-10-25T08:03:15.528Z,5.75
2022-10-25T08:05:46.350Z,7.57
2022-10-25T08:08:13.808Z,8.27
2022-10-25T08:10:42.349Z,6.30
2022-10-25T08:13:09.059Z,8.65
2022-10-25T08:15:36.373Z,8.32
2022-10-25T08:18:04.087Z,6.50
2022-10-25T08:20:49.675Z,10.00
2022-10-25T08:23:17.493Z,6.05
2022-10-25T08:25:44.247Z,9.07
2022-10-25T08:28:11.150Z,15.18
2022-10-25T08:30:37.839Z,7.55
2022-10-25T08:33:06.479Z,11.98
2022-10-25T08:35:36.033Z,10.63
2022-10-25T08:38:04.782Z,6.05
2022-10-25T08:40:54.182Z,6.50
2022-10-25T08:43:23.606Z,12.32
2022-10-25T08:45:55.839Z,6.28
2022-10-25T08:48:28.151Z,4.75
2022-10-25T08:51:03.028Z,6.32
2022-10-25T08:53:38.348Z,10.32
2022-10-25T08:56:16.174Z,4.95
2022-10-25T08:58:49.917Z,6.22
2022-10-25T09:01:29.501Z,11.52
2022-10-25T09:03:56.586Z,8.02
2022-10-25T09:06:41.399Z,4.75
2022-10-25T09:09:42.529Z,7.22
2022-10-25T09:12:22.573Z,5.07
2022-10-25T09:15:19.235Z,8.77
2022-10-25T09:17:51.316Z,7.47
2022-10-25T09:20:23.908Z,6.82
2022-10-25T09:23:08.433Z,5.70
2022-10-25T09:25:47.138Z,6.57
2022-10-25T09:28:30.470Z,7.00
2022-10-25T09:30:59.029Z,4.53
2022-10-25T09:33:30.522Z,5.63
2022-10-25T09:35:58.846Z,6.47
2022-10-25T09:38:34.453Z,8.95
2022-10-25T09:41:09.989Z,9.50
2022-10-25T09:43:45.764Z,9.98
2022-10-25T09:46:43.959Z,5.13
2022-10-25T09:49:10.575Z,3.78
2022-10-25T09:51:54.033Z,4.85
2022-10-25T09:54:39.953Z,8.65
2022-10-25T09:57:06.599Z,2.47
2022-10-25T09:59:33.903Z,4.90
2022-10-25T10:02:00.793Z,5.55
2022-10-25T10:04:38.996Z,7.05
2022-10-25T10:07:24.502Z,5.20
2022-10-25T10:09:55.436Z,6.95
2022-10-25T10:13:00.836Z,6.22
2022-10-25T10:15:51.372Z,5.30
2022-10-25T10:18:32.709Z,5.97
2022-10-25T10:21:11.309Z,3.85
2022-10-25T10:23:45.649Z,8.32
2022-10-25T10:26:20.442Z,5.18
2022-10-25T10:28:50.572Z,7.10
2022-10-25T10:31:19.204Z,8.13
2022-10-25T10:33:51.080Z,8.68
2022-10-25T10:38:46.743Z,4.70
2022-10-25T10:41:29.622Z,4.78
2022-10-25T10:44:13.203Z,4.18
2022-10-25T10:46:47.413Z,7.07
2022-10-25T10:49:15.998Z,5.88
2022-10-25T10:51:45.623Z,3.50
2022-10-25T10:54:23.882Z,8.30
2022-10-25T10:57:04.423Z,6.88
2022-10-25T10:59:54.465Z,5.97
2022-10-25T11:02:23.560Z,9.43
2022-10-25T11:04:55.746Z,5.82
2022-10-25T11:07:32.656Z,5.82
2022-10-25T11:10:35.260Z,7.53
2022-10-25T11:13:06.068Z,4.97
2022-10-25T11:15:55.447Z,6.53
2022-10-25T11:18:35.284Z,3.70
2022-10-25T11:21:39.623Z,9.07
2022-10-25T11:24:51.194Z,5.20
2022-10-25T11:27:25.810Z,4.67
2022-10-25T11:30:04.656Z,7.97
2022-10-25T11:33:13.387Z,4.80
2022-10-25T11:35:56.074Z,5.88
2022-10-25T11:38:55.089Z,5.90
2022-10-25T11:41:52.064Z,7.13
2022-10-25T11:44:45.776Z,10.30
2022-10-25T11:47:48.248Z,5.22
2022-10-25T11:50:52.937Z,4.40
2022-10-25T11:53:58.586Z,2.67
2022-10-25T11:56:31.062Z,5.10
2022-10-25T11:59:19.402Z,5.70
2022-10-25T12:01:58.425Z,3.58
2022-10-25T12:04:48.118Z,4.63
2022-10-25T12:07:33.995Z,6.55
2022-10-25T12:10:30.172Z,3.38
2022-10-25T12:13:03.011Z,6.43
2022-10-25T12:15:52.092Z,6.20
2022-10-25T12:18:47.395Z,7.28
2022-10-25T12:21:29.860Z,9.45
2022-10-25T12:23:57.564Z,2.65
2022-10-25T12:26:36.675Z,8.50
2022-10-25T12:29:10.988Z,5.55
2022-10-25T12:31:42.963Z,3.08
2022-10-25T12:34:15.575Z,4.30
2022-10-25T12:36:45.185Z,3.53
2022-10-25T12:39:21.649Z,6.03
2022-10-25T12:41:58.619Z,4.13
2022-10-25T12:44:37.262Z,5.38
2022-10-25T12:47:22.800Z,3.83
2022-10-25T12:50:07.735Z,4.97
2022-10-25T12:52:40.852Z,1.95
2022-10-25T12:55:38.209Z,3.35
2022-10-25T12:58:17.040Z,5.60
2022-10-25T13:00:55.562Z,1.65
2022-10-25T13:03:56.624Z,2.03
2022-10-25T13:06:45.203Z,5.90
2022-10-25T13:09:15.431Z,8.43
2022-10-25T13:12:01.275Z,4.60
2022-10-25T13:14:30.855Z,3.05
2022-10-25T13:17:16.491Z,3.92
2022-10-25T13:19:55.806Z,3.88
2022-10-25T13:22:35.698Z,2.65
2022-10-25T13:25:15.903Z,5.20
2022-10-25T13:28:10.618Z,4.43
2022-10-25T13:30:37.361Z,4.47
2022-10-25T13:33:19.212Z,4.07
2022-10-25T13:35:48.925Z,3.70
2022-10-25T13:38:27.447Z,4.80
2022-10-25T13:41:10.046Z,3.15
2022-10-25T13:43:53.661Z,3.05
2022-10-25T13:46:30.759Z,5.18
2022-10-25T13:48:58.252Z,3.30
2022-10-25T13:51:24.985Z,0.73
2022-10-25T13:53:53.587Z,3.60
2022-10-25T13:56:22.933Z,3.63
2022-10-25T13:58:54.390Z,4.70
2022-10-25T14:01:21.422Z,3.78
2022-10-25T14:04:03.426Z,4.07
2022-10-25T14:09:09.293Z,3.20
2022-10-25T14:11:47.265Z,4.05
2022-10-25T14:14:28.267Z,3.90
2022-10-25T14:16:55.453Z,6.03
2022-10-25T14:19:26.932Z,3.50
2022-10-25T14:21:55.213Z,4.88
2022-10-25T14:24:22.520Z,6.07
2022-10-25T14:26:56.278Z,5.30
2022-10-25T14:29:25.546Z,5.63
2022-10-25T14:31:53.327Z,3.78
2022-10-25T14:34:30.014Z,4.53
2022-10-25T14:36:58.361Z,2.50
2022-10-25T14:39:28.035Z,4.97
2022-10-25T14:42:02.760Z,7.65
2022-10-25T14:44:31.936Z,2.78
2022-10-25T14:46:59.964Z,5.25
2022-10-25T14:49:27.469Z,5.38
2022-10-25T14:51:59.492Z,3.03
2022-10-25T14:54:36.596Z,4.60
2022-10-25T14:57:08.620Z,4.78
2022-10-25T14:59:43.946Z,2.13
2022-10-25T15:02:16.223Z,2.70
2022-10-25T15:04:46.797Z,6.35
2022-10-25T15:07:36.357Z,4.53
2022-10-25T15:12:36.216Z,6.18
2022-10-25T15:15:44.600Z,3.17
2022-10-25T15:18:34.781Z,4.65
2022-10-25T15:21:14.810Z,5.68
2022-10-25T15:23:43.409Z,1.90
2022-10-25T15:26:39.388Z,2.33
2022-10-25T15:29:06.356Z,6.32
2022-10-25T15:31:33.022Z,3.90
2022-10-25T15:34:04.539Z,3.75
2022-10-25T15:36:33.432Z,1.92
2022-10-25T15:39:18.214Z,3.60
2022-10-25T15:41:44.899Z,2.33
2022-10-25T15:44:11.513Z,2.03
2022-10-25T15:46:38.312Z,3.55
2022-10-25T15:49:09.574Z,2.63
2022-10-25T15:51:43.333Z,5.38
2022-10-25T15:54:18.439Z,4.55
2022-10-25T15:56:45.625Z,3.05
2022-10-25T15:59:13.432Z,6.35
2022-10-25T16:01:47.052Z,7.85
2022-10-25T16:04:18.517Z,5.57
2022-10-25T16:06:45.977Z,9.07
2022-10-25T16:09:12.702Z,2.70
2022-10-25T16:11:44.860Z,4.40
2022-10-25T16:14:23.409Z,5.55
2022-10-25T16:16:50.333Z,6.82
2022-10-25T16:19:19.150Z,3.65
2022-10-25T16:21:46.262Z,4.63
2022-10-25T16:24:13.590Z,4.60
2022-10-25T16:26:50.067Z,3.95
2022-10-25T16:29:21.946Z,4.03
2022-10-25T16:34:17.281Z,13.05
2022-10-25T16:36:44.943Z,9.20
2022-10-25T16:39:12.008Z,8.57
2022-10-25T16:41:40.215Z,7.38
2022-10-25T16:44:06.934Z,8.68
2022-10-25T16:46:33.597Z,12.02
2022-10-25T16:49:02.058Z,8.15
2022-10-25T16:51:29.225Z,16.92
2022-10-25T16:53:57.184Z,17.92
2022-10-25T16:56:23.854Z,16.05
2022-10-25T16:58:50.641Z,19.08
2022-10-25T17:01:21.543Z,21.63
2022-10-25T17:03:52.441Z,21.03
2022-10-25T17:09:07.095Z,22.30
2022-10-25T17:11:33.698Z,41.00
2022-10-25T17:14:00.302Z,44.85
2022-10-25T17:16:29.020Z,50.00
2022-10-25T17:18:56.407Z,55.40
2022-10-25T17:21:23.601Z,65.90
2022-10-25T17:23:50.239Z,66.03
2022-10-25T17:26:16.931Z,52.67
2022-10-25T17:28:44.508Z,36.80
2022-10-25T17:31:13.158Z,39.50
2022-10-25T17:33:40.589Z,30.60
2022-10-25T17:36:10.569Z,14.77
2022-10-25T17:38:37.493Z,11.98
2022-10-25T17:41:04.518Z,15.63
2022-10-25T17:43:31.182Z,16.67
2022-10-25T17:46:03.074Z,17.70
2022-10-25T17:51:05.158Z,17.33
2022-10-25T17:56:11.226Z,22.75
2022-10-25T17:58:37.973Z,26.80
2022-10-25T18:01:05.611Z,29.23
2022-10-25T18:03:32.920Z,29.80
2022-10-25T18:06:03.920Z,23.00
2022-10-25T18:08:30.603Z,19.37
2022-10-25T18:11:07.264Z,19.48
2022-10-25T18:13:33.982Z,18.30
2022-10-25T18:16:03.529Z,22.20
2022-10-25T18:18:30.742Z,23.13
2022-10-25T18:21:09.063Z,17.48
2022-10-25T18:23:36.383Z,13.93
2022-10-25T18:26:04.389Z,17.80
2022-10-25T18:28:35.613Z,14.35
2022-10-25T18:31:09.014Z,20.50
2022-10-25T18:33:37.706Z,18.02
2022-10-25T18:36:15.041Z,17.55
2022-10-25T18:38:42.198Z,18.05
2022-10-25T18:41:11.252Z,12.25
2022-10-25T18:43:37.926Z,13.50
2022-10-25T18:46:05.211Z,13.98
2022-10-25T18:48:31.972Z,12.00
2022-10-25T18:51:10.910Z,13.95
2022-10-25T18:53:40.888Z,15.23
2022-10-25T18:56:13.030Z,16.70
2022-10-25T18:58:41.069Z,16.17
2022-10-25T19:01:08.701Z,15.07
2022-10-25T19:03:36.345Z,15.75
2022-10-25T19:06:03.839Z,19.35
2022-10-25T19:08:30.529Z,17.73
2022-10-25T19:10:57.337Z,18.15
2022-10-25T19:13:23.988Z,11.90
2022-10-25T19:15:50.658Z,16.40
2022-10-25T19:18:17.367Z,22.05
2022-10-25T19:20:46.448Z,14.48
2022-10-25T19:23:13.320Z,16.58
2022-10-25T19:25:40.192Z,12.27
2022-10-25T19:28:07.323Z,15.77
2022-10-25T19:30:37.725Z,14.45
2022-10-25T19:33:05.441Z,12.93
2022-10-25T19:35:32.832Z,13.52
2022-10-25T19:37:59.518Z,19.52
2022-10-25T19:40:26.261Z,13.55
2022-10-25T19:42:53.461Z,14.30
2022-10-25T19:45:20.308Z,11.32
2022-10-25T19:47:47.333Z,13.30
2022-10-25T19:50:14.459Z,12.13
2022-10-25T19:52:41.246Z,9.68
2022-10-25T19:55:08.229Z,9.15
2022-10-25T19:57:35.548Z,10.32
2022-10-25T20:00:08.641Z,18.95
2022-10-25T20:02:38.529Z,12.43
2022-10-25T20:05:05.759Z,27.27
2022-10-25T20:07:32.445Z,19.20
2022-10-25T20:09:59.089Z,18.75
2022-10-25T20:12:25.764Z,18.88
2022-10-25T20:14:52.410Z,23.40
2022-10-25T20:17:19.034Z,15.73
2022-10-25T20:19:45.706Z,16.55
2022-10-25T20:22:12.391Z,13.40
2022-10-25T20:24:39.013Z,13.77
2022-10-25T20:27:06.624Z,12.70
2022-10-25T20:29:33.312Z,12.50
2022-10-25T20:31:59.947Z,9.07
2022-10-25T20:34:26.810Z,10.30
2022-10-25T20:36:53.870Z,8.68
2022-10-25T20:39:20.497Z,12.50
2022-10-25T20:41:47.256Z,12.15
2022-10-25T20:44:14.732Z,19.58
2022-10-25T20:46:41.532Z,19.00
2022-10-25T20:49:08.245Z,18.30
2022-10-25T20:51:35.241Z,13.65
2022-10-25T20:54:05.184Z,9.27
2022-10-25T20:56:31.972Z,9.73
2022-10-25T20:58:58.603Z,9.23
2022-10-25T21:01:25.414Z,11.43
2022-10-25T21:03:53.940Z,11.57
2022-10-25T21:06:20.645Z,10.00
2022-10-25T21:08:47.312Z,10.25
2022-10-25T21:11:14.194Z,15.60
2022-10-25T21:13:41.123Z,10.88
2022-10-25T21:16:10.586Z,11.93
2022-10-25T21:18:37.759Z,16.90
2022-10-25T21:21:07.275Z,12.63
2022-10-25T21:23:34.170Z,10.18
2022-10-25T21:26:02.951Z,9.27
2022-10-25T21:28:34.857Z,8.38
2022-10-25T21:31:07.042Z,8.75
2022-10-25T21:33:33.689Z,9.23
2022-10-25T21:36:05.523Z,8.82
2022-10-25T21:38:32.755Z,9.50
2022-10-25T21:41:17.305Z,8.52
2022-10-25T21:43:46.623Z,10.20
2022-10-25T21:46:14.848Z,16.40
2022-10-25T21:48:42.036Z,13.68
2022-10-25T21:51:08.707Z,16.25
2022-10-25T21:53:36.382Z,13.05
2022-10-25T21:56:18.463Z,18.65
2022-10-25T21:58:47.136Z,11.40
2022-10-25T22:01:20.216Z,12.23
2022-10-25T22:03:46.949Z,12.00
2022-10-25T22:06:15.880Z,10.63
2022-10-25T22:08:43.023Z,12.70
2022-10-25T22:11:15.829Z,12.77
2022-10-25T22:13:42.736Z,9.32
2022-10-25T22:16:19.272Z,12.77
2022-10-25T22:18:54.833Z,13.15
2022-10-25T22:21:21.878Z,13.30
2022-10-25T22:23:48.680Z,19.42
2022-10-25T22:26:17.396Z,13.02
2022-10-25T22:28:44.061Z,17.77
2022-10-25T22:31:15.803Z,11.88
2022-10-25T22:33:43.422Z,13.00
2022-10-25T22:36:14.249Z,10.52
2022-10-25T22:38:41.288Z,12.98
2022-10-25T22:41:11.193Z,19.02
2022-10-25T22:43:39.277Z,17.23
2022-10-25T22:46:10.538Z,19.30
2022-10-25T22:48:38.858Z,10.63
2022-10-25T22:51:06.280Z,21.70
2022-10-25T22:53:35.592Z,17.02
2022-10-25T22:56:05.277Z,16.77
2022-10-25T22:58:33.333Z,21.13
2022-10-25T23:01:06.048Z,19.40
2022-10-25T23:03:33.456Z,12.80
2022-10-25T23:06:03.415Z,19.95
2022-10-25T23:08:34.352Z,22.08
2022-10-25T23:11:05.779Z,12.98
2022-10-25T23:13:34.154Z,10.07
2022-10-25T23:16:02.222Z,8.45
2022-10-25T23:18:29.201Z,7.32
2022-10-25T23:20:57.625Z,7.28
2022-10-25T23:23:25.307Z,7.57
2022-10-25T23:25:52.997Z,12.30
2022-10-25T23:28:20.148Z,10.85
2022-10-25T23:30:46.864Z,14.90
2022-10-25T23:33:13.877Z,10.88
2022-10-25T23:35:41.850Z,13.60
2022-10-25T23:38:11.667Z,8.32
2022-10-25T23:40:38.731Z,15.40
2022-10-25T23:43:05.413Z,14.65
2022-10-25T23:45:32.239Z,18.88
2022-10-25T23:47:59.097Z,10.48
2022-10-25T23:50:25.686Z,11.25
2022-10-25T23:52:52.450Z,12.55
2022-10-25T23:55:19.126Z,16.20
2022-10-25T23:57:45.789Z,8.93
